»·PEaware :: USC81 KSAN-KSBA

USC81 :: KSAN-KSBA

FLIGHT INFORMATION

Flight Status: Arrived
Operator: Unknown
More flights by this operator :: More flights under this callsign
Pilot: Andy P. (22680)
Aircraft: GATES LEARJET LEARJET 35/36
(LJ35)
More flights by this aircraft type
Origin: KSAN San Diego Intl-Lindbergh
United States
Destination: KSBA Santa Barbara Mun
United States
More flights between these airports :: More routes between these airports
Route: CWARD2 CWARD AVOLS V208 VTU VTU282 KWANG
File this flight plan on PilotEdge
Remarks: TEC ROUTE SANP36R
Altitude:
(Current/Filed)
10,000ft
Speed:
(Current/Filed)
465kts
Departed: 15-Oct-20 01:33 PM
Arrived: 15-Oct-20 02:10 PM
Distance/Time
Traveled:
167nm/0:37
Distance/Time
To Go:
Arrived

Flight Plot

Page will automatically refresh every two minutes.

Flight plan parsing failed; only flown route is shown


Map Options




Map Legend


Flown Route
Filed Route
Departure Airport
Arrival Airport
Navaid (VOR, NDB)
Fix

Horizontal Profiles

Position Reports

Time Latitude Longitude Heading Altitude Ground
Speed
15-Oct-20 13:09 32.737450 -117.185707 343 18ft 0kts
15-Oct-20 13:10 32.737450 -117.185707 343 18ft 0kts
15-Oct-20 13:11 32.737450 -117.185707 343 18ft 0kts
15-Oct-20 13:12 32.737450 -117.185707 343 18ft 0kts
15-Oct-20 13:13 32.737450 -117.185707 343 18ft 0kts
15-Oct-20 13:14 32.737450 -117.185707 343 18ft 0kts
15-Oct-20 13:15 32.737450 -117.185707 343 18ft 0kts
15-Oct-20 13:16 32.737450 -117.185707 343 18ft 0kts
15-Oct-20 13:17 32.737450 -117.185707 343 18ft 0kts
15-Oct-20 13:18 32.737450 -117.185707 343 18ft 0kts
15-Oct-20 13:19 32.737450 -117.185707 343 18ft 0kts
15-Oct-20 13:20 32.737450 -117.185707 343 18ft 0kts
15-Oct-20 13:21 32.737450 -117.185707 343 18ft 0kts
15-Oct-20 13:22 32.737450 -117.185707 343 18ft 0kts
15-Oct-20 13:23 32.737450 -117.185707 343 18ft 0kts
15-Oct-20 13:24 32.737450 -117.185707 343 18ft 0kts
15-Oct-20 13:25 32.737450 -117.185707 343 18ft 0kts
15-Oct-20 13:26 32.737450 -117.185707 343 18ft 0kts
15-Oct-20 13:27 32.737451 -117.185708 343 18ft 0kts
15-Oct-20 13:28 32.737454 -117.185709 343 18ft 0kts
15-Oct-20 13:29 32.737161 -117.186049 166 18ft 10kts
15-Oct-20 13:30 32.733126 -117.183140 106 18ft 17kts
15-Oct-20 13:31 32.731410 -117.176040 117 18ft 6kts
15-Oct-20 13:32 32.732316 -117.184572 286 18ft 115kts
15-Oct-20 13:33 32.751039 -117.232877 306 1129ft 179kts
15-Oct-20 13:34 32.780954 -117.284420 302 2721ft 201kts
15-Oct-20 13:35 32.813709 -117.341454 308 4975ft 222kts
15-Oct-20 13:36 32.853718 -117.402548 308 7101ft 242kts
15-Oct-20 13:37 32.894962 -117.466512 308 9196ft 244kts
15-Oct-20 13:38 32.940133 -117.536766 308 9984ft 303kts
15-Oct-20 13:39 32.994977 -117.622305 307 9977ft 338kts
15-Oct-20 13:40 33.052956 -117.712561 309 9980ft 347kts
15-Oct-20 13:41 33.125185 -117.791937 320 9987ft 365kts
15-Oct-20 13:42 33.209611 -117.865185 342 9984ft 383kts
15-Oct-20 13:43 33.312949 -117.897177 331 9983ft 388kts
15-Oct-20 13:44 33.370310 -117.990481 283 9988ft 392kts
15-Oct-20 13:45 33.362419 -118.120134 264 9952ft 394kts
15-Oct-20 13:46 33.353885 -118.241181 270 9965ft 394kts
15-Oct-20 13:47 33.369147 -118.370647 278 9985ft 394kts
15-Oct-20 13:48 33.420718 -118.483355 310 9993ft 394kts
15-Oct-20 13:49 33.490761 -118.584369 309 9983ft 394kts
15-Oct-20 13:50 33.561111 -118.685275 309 9968ft 394kts
15-Oct-20 13:51 33.631523 -118.786243 309 9955ft 394kts
15-Oct-20 13:52 33.701753 -118.887207 309 10021ft 394kts
15-Oct-20 13:53 33.774226 -118.986167 320 10019ft 395kts
15-Oct-20 13:54 33.877539 -119.022151 357 10006ft 395kts
15-Oct-20 13:55 33.972535 -119.033319 353 10009ft 396kts
15-Oct-20 13:56 34.043881 -119.092829 303 9135ft 268kts
15-Oct-20 13:57 34.081548 -119.155295 305 7935ft 259kts
15-Oct-20 13:58 34.127200 -119.227703 306 6639ft 272kts
15-Oct-20 13:59 34.172819 -119.299462 306 5337ft 264kts
15-Oct-20 14:00 34.216819 -119.368650 306 4146ft 254kts
15-Oct-20 14:01 34.258131 -119.433741 306 4013ft 237kts
15-Oct-20 14:02 34.297748 -119.496289 306 4017ft 231kts
15-Oct-20 14:03 34.325777 -119.555148 297 3823ft 219kts
15-Oct-20 14:04 34.355798 -119.618870 300 2894ft 215kts
15-Oct-20 14:05 34.386428 -119.678373 302 2125ft 192kts
15-Oct-20 14:06 34.412787 -119.729300 296 1694ft 157kts
15-Oct-20 14:07 34.429349 -119.777895 275 1047ft 143kts
15-Oct-20 14:08 34.428455 -119.815644 267 406ft 117kts
15-Oct-20 14:09 34.427715 -119.843822 269 13ft 31kts
15-Oct-20 14:10 34.428512 -119.845515 66 13ft 1kts
15-Oct-20 14:11 34.430029 -119.841569 65 13ft 27kts
15-Oct-20 14:12 34.432389 -119.833515 159 13ft 4kts
15-Oct-20 14:13 34.432086 -119.833425 176 13ft 0kts
15-Oct-20 14:14 34.432086 -119.833425 176 13ft 0kts
15-Oct-20 14:15 34.432086 -119.833425 176 13ft 0kts
15-Oct-20 14:16 34.432086 -119.833425 176 13ft 0kts
15-Oct-20 14:17 34.432087 -119.833427 163 0ft 0kts
15-Oct-20 14:18 34.432087 -119.833427 163 13ft 0kts
15-Oct-20 14:19 34.432087 -119.833427 163 13ft 0kts
15-Oct-20 14:20 34.432087 -119.833427 163 13ft 0kts
15-Oct-20 14:21 34.432087 -119.833427 163 13ft 0kts
15-Oct-20 14:23 34.432087 -119.833427 163 13ft 0kts
15-Oct-20 14:24 34.432087 -119.833427 163 13ft 0kts

Navigation Log

Ident Type
Flight plan parsing failed, navigation log unavailable